This is the latest recevied weather packets stored in our database for station/object VK1KCM-5. If no packets are shown the sender has not sent any weather packets the latest 10 day(s).
| Time | Temp. | Humidity | Pressure | Rain* | Wind** | Luminosity | Snow |
|---|---|---|---|---|---|---|---|
| 1787802177 | 17.22° C | 57% | 1022.3 hPa | 0 mm | - | - | - |
| 1787801912 | 16.67° C | 58% | 1022.1 hPa | 0 mm | - | - | - |
| 1787801662 | 16.11° C | 61% | 1022.4 hPa | 0 mm | - | - | - |
| 1787801366 | 15.56° C | 62% | 1022.8 hPa | 0 mm | - | - | - |
| 1787801072 | 16.67° C | 61% | 1022.7 hPa | 0 mm | - | - | - |
| 1787800812 | 17.22° C | 58% | 1022.5 hPa | 0 mm | - | - | - |
| 1787800542 | 16.67° C | 58% | 1022.7 hPa | 0 mm | - | - | - |
| 1787800247 | 16.67° C | 58% | 1022.7 hPa | 0 mm | - | - | - |
| 1787799952 | 16.11° C | 60% | 1022.7 hPa | 0 mm | - | - | - |
| 1787799687 | 16.67° C | 58% | 1022.5 hPa | 0 mm | - | - | - |
| 1787799427 | 16.67° C | 57% | 1022.9 hPa | 0 mm | - | - | - |
| 1787799142 | 16.67° C | 58% | 1023.2 hPa | 0 mm | - | - | - |
| 1787798882 | 16.67° C | 57% | 1023.1 hPa | 0 mm | - | - | - |
| 1787798607 | 16.67° C | 58% | 1023.3 hPa | 0 mm | - | - | - |
| 1787798326 | 16.67° C | 59% | 1023.1 hPa | 0 mm | - | - | - |
| 1787798052 | 15.56° C | 59% | 1023.5 hPa | 0 mm | - | - | - |
| 1787797757 | 16.11° C | 58% | 1023.5 hPa | 0 mm | - | - | - |
| 1787797487 | 15.56° C | 58% | 1023.8 hPa | 0 mm | - | - | - |
| 1787797212 | 15° C | 61% | 1024.3 hPa | 0 mm | - | - | - |
| 1787796952 | 15° C | 61% | 1024.3 hPa | 0 mm | - | - | - |
| 1787796707 | 15.56° C | 61% | 1024 hPa | 0 mm | - | - | - |
| 1787796433 | 15° C | 61% | 1024.3 hPa | 0 mm | - | - | - |
| 1787796141 | 15.56° C | 60% | 1024.2 hPa | 0 mm | - | - | - |
| 1787795846 | 15.56° C | 59% | 1024.4 hPa | 0 mm | - | - | - |
| 1787795607 | 15.56° C | 60% | 1024.5 hPa | 0 mm | - | - | - |
* Rain latest hour (hover to see other rain measurements)
** Current wind speed in m/s (hover to see current wind gust speed)